createdAt,value
2022-11-02T00:00:30.982Z,1.98
2022-11-02T00:06:34.799Z,3.17
2022-11-02T00:09:36.692Z,2.70
2022-11-02T00:12:38.568Z,2.42
2022-11-02T00:15:40.569Z,2.30
2022-11-02T00:18:44.759Z,1.73
2022-11-02T00:21:49.089Z,2.33
2022-11-02T00:24:50.976Z,2.17
2022-11-02T00:27:52.974Z,2.10
2022-11-02T00:30:55.057Z,2.20
2022-11-02T00:33:57.085Z,2.17
2022-11-02T00:36:58.937Z,2.40
2022-11-02T00:40:00.908Z,2.38
2022-11-02T00:43:02.797Z,1.95
2022-11-02T00:46:05.228Z,1.80
2022-11-02T00:49:07.055Z,2.10
2022-11-02T00:52:10.456Z,2.00
2022-11-02T00:55:12.618Z,2.75
2022-11-02T00:58:17.284Z,1.85
2022-11-02T01:01:19.410Z,1.98
2022-11-02T01:04:21.469Z,2.40
2022-11-02T01:07:23.368Z,1.73
2022-11-02T01:10:25.342Z,1.48
2022-11-02T01:13:27.234Z,2.17
2022-11-02T01:16:29.441Z,2.20
2022-11-02T01:19:31.329Z,1.63
2022-11-02T01:22:33.215Z,1.50
2022-11-02T01:25:37.695Z,1.85
2022-11-02T01:28:40.236Z,1.95
2022-11-02T01:31:42.121Z,2.10
2022-11-02T01:34:44.031Z,1.70
2022-11-02T01:37:48.490Z,1.95
2022-11-02T01:40:50.497Z,1.67
2022-11-02T01:43:56.313Z,1.63
2022-11-02T01:47:08.414Z,1.60
2022-11-02T01:50:16.109Z,1.40
2022-11-02T01:53:18.063Z,1.80
2022-11-02T01:59:32.047Z,1.75
2022-11-02T02:05:43.916Z,1.50
2022-11-02T02:08:55.319Z,1.42
2022-11-02T02:11:59.501Z,1.80
2022-11-02T02:15:01.608Z,2.67
2022-11-02T02:18:26.162Z,2.47
2022-11-02T02:21:37.369Z,2.55
2022-11-02T02:25:03.609Z,1.90
2022-11-02T02:28:23.167Z,1.90
2022-11-02T02:31:40.820Z,2.30
2022-11-02T02:34:42.736Z,1.90
2022-11-02T02:37:56.949Z,2.00
2022-11-02T02:41:11.270Z,1.70
2022-11-02T02:44:21.979Z,2.53
2022-11-02T02:47:28.857Z,1.77
2022-11-02T02:50:41.855Z,2.05
2022-11-02T02:53:48.383Z,1.77
2022-11-02T02:56:57.567Z,1.50
2022-11-02T02:59:59.458Z,2.13
2022-11-02T03:03:06.544Z,1.80
2022-11-02T03:06:28.153Z,1.40
2022-11-02T03:09:45.261Z,1.70
2022-11-02T03:13:16.386Z,1.73
2022-11-02T03:16:37.942Z,1.10
2022-11-02T03:19:59.871Z,1.90
2022-11-02T03:23:49.023Z,2.10
2022-11-02T03:27:07.799Z,1.63
2022-11-02T03:30:14.701Z,1.67
2022-11-02T03:33:26.095Z,1.63
2022-11-02T03:36:42.124Z,1.45
2022-11-02T03:39:50.983Z,1.25
2022-11-02T03:42:54.383Z,1.45
2022-11-02T03:46:01.341Z,1.60
2022-11-02T03:49:08.580Z,1.75
2022-11-02T03:52:21.822Z,1.95
2022-11-02T03:55:35.952Z,1.98
2022-11-02T03:58:37.967Z,1.58
2022-11-02T04:01:43.587Z,1.60
2022-11-02T04:04:53.171Z,1.60
2022-11-02T04:08:00.029Z,1.48
2022-11-02T04:11:03.651Z,1.88
2022-11-02T04:14:06.602Z,1.73
2022-11-02T04:17:12.990Z,1.35
2022-11-02T04:20:19.695Z,1.65
2022-11-02T04:23:22.471Z,1.33
2022-11-02T04:26:24.365Z,1.75
2022-11-02T04:32:29.012Z,1.90
2022-11-02T04:35:31.939Z,1.60
2022-11-02T04:38:34.361Z,1.48
2022-11-02T04:41:39.250Z,1.50
2022-11-02T04:44:44.837Z,1.48
2022-11-02T04:48:00.618Z,1.60
2022-11-02T04:51:03.183Z,1.92
2022-11-02T04:54:06.371Z,1.80
2022-11-02T04:57:08.718Z,3.08
2022-11-02T05:00:14.386Z,1.80
2022-11-02T05:03:16.653Z,1.80
2022-11-02T05:06:20.616Z,2.10
2022-11-02T05:09:23.602Z,1.58
2022-11-02T05:12:29.141Z,1.80
2022-11-02T05:15:31.736Z,2.08
2022-11-02T05:18:35.823Z,1.83
2022-11-02T05:21:38.069Z,1.73
2022-11-02T05:24:40.433Z,1.50
2022-11-02T05:27:43.427Z,1.80
2022-11-02T05:30:46.219Z,1.70
2022-11-02T05:33:48.290Z,1.90
2022-11-02T05:36:53.977Z,1.80
2022-11-02T05:39:55.977Z,1.52
2022-11-02T05:43:02.972Z,1.30
2022-11-02T05:46:05.762Z,1.30
2022-11-02T05:49:07.644Z,1.40
2022-11-02T05:52:09.608Z,1.65
2022-11-02T05:55:12.989Z,1.42
2022-11-02T05:58:14.990Z,1.00
2022-11-02T06:01:16.979Z,1.02
2022-11-02T06:04:18.956Z,1.23
2022-11-02T06:07:21.044Z,1.77
2022-11-02T06:10:22.935Z,1.63
2022-11-02T06:13:24.854Z,1.67
2022-11-02T06:16:26.885Z,1.30
2022-11-02T06:19:28.841Z,1.40
2022-11-02T06:22:30.852Z,1.80
2022-11-02T06:25:32.770Z,1.40
2022-11-02T06:28:34.628Z,1.30
2022-11-02T06:31:36.963Z,1.25
2022-11-02T06:34:38.896Z,1.42
2022-11-02T06:37:40.909Z,1.60
2022-11-02T06:40:43.135Z,1.73
2022-11-02T06:43:45.046Z,1.85
2022-11-02T06:46:47.045Z,1.77
2022-11-02T06:49:48.982Z,1.75
2022-11-02T06:52:51.706Z,2.25
2022-11-02T06:55:55.089Z,1.85
2022-11-02T06:58:57.099Z,2.10
2022-11-02T07:01:59.151Z,1.92
2022-11-02T07:05:01.104Z,1.77
2022-11-02T07:08:03.957Z,1.42
2022-11-02T07:11:06.001Z,1.70
2022-11-02T07:14:07.948Z,1.40
2022-11-02T07:17:09.822Z,1.50
2022-11-02T07:20:11.814Z,2.47
2022-11-02T07:23:13.813Z,1.73
2022-11-02T07:26:15.648Z,1.80
2022-11-02T07:29:18.520Z,2.05
2022-11-02T07:32:20.412Z,1.85
2022-11-02T07:35:22.457Z,1.55
2022-11-02T07:38:24.422Z,2.05
2022-11-02T07:41:29.696Z,2.13
2022-11-02T07:44:31.771Z,2.00
2022-11-02T07:47:37.105Z,1.88
2022-11-02T07:50:38.946Z,1.70
2022-11-02T07:53:41.110Z,1.83
2022-11-02T07:56:44.967Z,2.13
2022-11-02T07:59:46.952Z,1.98
2022-11-02T08:02:48.954Z,2.00
2022-11-02T08:05:51.124Z,2.08
2022-11-02T08:08:53.092Z,2.47
2022-11-02T08:11:56.979Z,2.55
2022-11-02T08:15:01.236Z,1.80
2022-11-02T08:18:09.944Z,1.65
2022-11-02T08:21:11.880Z,1.50
2022-11-02T08:24:13.818Z,1.70
2022-11-02T08:27:21.407Z,1.98
2022-11-02T08:30:23.750Z,1.65
2022-11-02T08:33:25.832Z,1.58
2022-11-02T08:36:27.939Z,1.50
2022-11-02T08:39:32.512Z,1.63
2022-11-02T08:42:34.595Z,2.45
2022-11-02T08:46:12.804Z,1.75
2022-11-02T08:49:02.117Z,1.63
2022-11-02T08:52:04.241Z,1.60
2022-11-02T08:55:06.844Z,1.77
2022-11-02T08:58:09.629Z,1.52
2022-11-02T09:01:12.089Z,1.23
2022-11-02T09:04:14.226Z,1.67
2022-11-02T09:07:18.823Z,1.67
2022-11-02T09:10:20.881Z,1.85
2022-11-02T09:13:25.764Z,1.60
2022-11-02T09:16:27.918Z,1.50
2022-11-02T09:19:29.966Z,1.52
2022-11-02T09:22:32.026Z,1.25
2022-11-02T09:25:34.258Z,1.15
2022-11-02T09:31:38.853Z,1.88
2022-11-02T09:34:41.254Z,1.33
2022-11-02T09:37:49.940Z,1.35
2022-11-02T09:41:13.049Z,1.17
2022-11-02T09:44:20.834Z,1.40
2022-11-02T09:50:59.371Z,1.35
2022-11-02T09:54:44.053Z,1.60
2022-11-02T09:57:48.903Z,1.90
2022-11-02T10:00:57.988Z,1.60
2022-11-02T10:04:31.122Z,1.88
2022-11-02T10:07:45.629Z,1.90
2022-11-02T10:11:08.041Z,1.10
2022-11-02T10:14:20.859Z,1.88
2022-11-02T10:17:29.001Z,1.85
2022-11-02T10:20:40.406Z,1.40
2022-11-02T10:23:52.133Z,1.50
2022-11-02T10:26:59.164Z,2.05
2022-11-02T10:30:14.194Z,2.25
2022-11-02T10:33:18.730Z,1.52
2022-11-02T10:37:03.626Z,1.38
2022-11-02T10:40:20.145Z,1.50
2022-11-02T10:43:54.018Z,1.58
2022-11-02T10:47:14.556Z,1.92
2022-11-02T10:50:48.109Z,1.63
2022-11-02T10:53:52.037Z,2.75
2022-11-02T10:56:56.905Z,2.28
2022-11-02T11:00:50.394Z,2.20
2022-11-02T11:03:58.421Z,2.00
2022-11-02T11:07:26.226Z,2.33
2022-11-02T11:10:31.353Z,1.58
2022-11-02T11:20:38.535Z,1.50
2022-11-02T11:23:40.871Z,1.95
2022-11-02T11:26:43.126Z,1.38
2022-11-02T11:29:58.515Z,1.63
2022-11-02T11:33:04.589Z,2.00
2022-11-02T11:36:08.720Z,1.38
2022-11-02T11:39:39.001Z,1.98
2022-11-02T11:42:43.382Z,1.38
2022-11-02T11:46:14.106Z,1.45
2022-11-02T11:49:35.885Z,1.55
2022-11-02T12:03:14.973Z,1.00
2022-11-02T12:06:16.869Z,1.10
2022-11-02T12:12:53.238Z,1.20
2022-11-02T12:16:40.799Z,1.55
2022-11-02T12:19:51.656Z,1.15
2022-11-02T12:23:10.708Z,1.23
2022-11-02T12:26:41.076Z,1.30
2022-11-02T12:30:01.839Z,1.27
2022-11-02T12:33:32.816Z,1.10
2022-11-02T12:40:54.084Z,1.05
2022-11-02T12:44:25.414Z,1.20
2022-11-02T12:47:42.910Z,1.48
2022-11-02T12:51:08.949Z,1.30
2022-11-02T12:54:12.862Z,1.40
2022-11-02T12:57:18.802Z,1.50
2022-11-02T13:00:22.628Z,1.35
2022-11-02T13:03:33.247Z,1.17
2022-11-02T13:06:43.442Z,1.00
2022-11-02T13:10:00.676Z,1.45
2022-11-02T13:13:04.632Z,1.20
2022-11-02T13:16:09.339Z,1.10
2022-11-02T13:19:28.601Z,1.52
2022-11-02T13:22:35.510Z,1.10
2022-11-02T13:25:47.606Z,1.63
2022-11-02T13:28:55.147Z,1.48
2022-11-02T13:32:06.479Z,1.23
2022-11-02T13:35:20.998Z,1.50
2022-11-02T13:38:34.976Z,1.10
2022-11-02T13:41:42.999Z,1.10
2022-11-02T13:45:15.782Z,1.55
2022-11-02T13:48:30.966Z,1.25
2022-11-02T13:51:40.089Z,1.42
2022-11-02T13:54:59.184Z,1.25
2022-11-02T13:58:01.304Z,0.98
2022-11-02T14:01:06.419Z,1.48
2022-11-02T14:04:11.240Z,1.25
2022-11-02T14:07:35.800Z,0.90
2022-11-02T14:10:40.661Z,1.45
2022-11-02T14:13:54.831Z,0.95
2022-11-02T14:17:00.790Z,0.90
2022-11-02T14:20:02.820Z,1.17
2022-11-02T14:23:10.782Z,1.17
2022-11-02T14:26:33.003Z,1.25
2022-11-02T14:29:46.912Z,0.93
2022-11-02T14:33:04.753Z,1.20
2022-11-02T14:36:18.771Z,1.05
2022-11-02T14:39:42.581Z,1.25
2022-11-02T14:43:07.014Z,1.40
2022-11-02T14:46:12.102Z,1.45
2022-11-02T14:49:45.909Z,1.23
2022-11-02T14:53:10.116Z,1.05
2022-11-02T14:56:13.809Z,2.42
2022-11-02T14:59:26.595Z,2.38
2022-11-02T15:02:37.224Z,3.70
2022-11-02T15:05:43.274Z,6.55
2022-11-02T15:08:57.816Z,7.35
2022-11-02T15:12:00.315Z,3.65
2022-11-02T15:15:24.764Z,1.65
2022-11-02T15:18:29.955Z,0.90
2022-11-02T15:21:31.925Z,1.25
2022-11-02T15:24:34.235Z,1.70
2022-11-02T15:30:43.706Z,1.30
2022-11-02T15:33:51.856Z,1.23
2022-11-02T15:40:03.097Z,1.15
2022-11-02T15:43:36.320Z,1.42
2022-11-02T15:46:59.646Z,1.92
2022-11-02T15:50:28.939Z,1.88
2022-11-02T15:54:04.886Z,1.63
2022-11-02T15:57:35.349Z,2.00
2022-11-02T16:00:37.931Z,1.90
2022-11-02T16:03:48.600Z,4.00
2022-11-02T16:06:50.699Z,5.00
2022-11-02T16:09:55.323Z,3.08
2022-11-02T16:13:20.230Z,2.85
2022-11-02T16:16:22.478Z,2.70
2022-11-02T16:19:29.868Z,1.67
2022-11-02T16:22:31.780Z,3.22
2022-11-02T16:25:40.002Z,2.35
2022-11-02T16:28:42.622Z,1.98
2022-11-02T16:31:44.638Z,2.17
2022-11-02T16:34:46.847Z,3.13
2022-11-02T16:37:49.705Z,1.55
2022-11-02T16:40:54.549Z,2.25
2022-11-02T16:43:58.708Z,2.10
2022-11-02T16:47:09.586Z,1.38
2022-11-02T16:50:26.177Z,1.45
2022-11-02T16:53:30.193Z,1.77
2022-11-02T16:56:32.182Z,1.67
2022-11-02T16:59:40.652Z,1.75
2022-11-02T17:05:49.701Z,2.28
2022-11-02T17:08:55.709Z,2.50
2022-11-02T17:12:17.354Z,2.10
2022-11-02T17:15:22.641Z,1.77
2022-11-02T17:18:27.946Z,1.60
2022-11-02T17:21:29.961Z,3.15
2022-11-02T17:24:33.206Z,4.78
2022-11-02T17:27:39.310Z,3.20
2022-11-02T17:30:46.148Z,2.55
2022-11-02T17:33:48.995Z,2.17
2022-11-02T17:36:51.152Z,2.28
2022-11-02T17:39:54.226Z,2.45
2022-11-02T17:42:56.858Z,2.40
2022-11-02T17:46:02.038Z,1.98
2022-11-02T17:49:04.254Z,2.10
2022-11-02T17:52:06.552Z,3.15
2022-11-02T17:55:14.177Z,2.42
2022-11-02T17:58:16.077Z,1.70
2022-11-02T18:01:18.668Z,2.10
2022-11-02T18:04:20.640Z,2.10
2022-11-02T18:07:24.831Z,2.10
2022-11-02T18:10:30.482Z,2.30
2022-11-02T18:13:32.463Z,2.38
2022-11-02T18:16:34.365Z,2.00
2022-11-02T18:19:36.519Z,2.15
2022-11-02T18:22:38.630Z,1.70
2022-11-02T18:25:40.550Z,2.50
2022-11-02T18:28:42.530Z,2.65
2022-11-02T18:31:44.431Z,3.05
2022-11-02T18:34:46.353Z,2.47
2022-11-02T18:37:51.097Z,2.78
2022-11-02T18:40:53.402Z,4.75
2022-11-02T18:44:03.490Z,3.50
2022-11-02T18:47:06.720Z,3.28
2022-11-02T18:50:10.931Z,3.42
2022-11-02T18:53:13.614Z,3.63
2022-11-02T18:56:15.539Z,4.03
2022-11-02T18:59:17.479Z,3.10
2022-11-02T19:02:19.833Z,3.35
2022-11-02T19:05:22.356Z,3.42
2022-11-02T19:08:24.302Z,3.25
2022-11-02T19:11:26.603Z,2.67
2022-11-02T19:14:32.386Z,2.80
2022-11-02T19:17:34.293Z,2.88
2022-11-02T19:20:36.222Z,3.28
2022-11-02T19:23:38.201Z,3.95
2022-11-02T19:26:40.143Z,2.92
2022-11-02T19:29:42.134Z,2.30
2022-11-02T19:32:44.055Z,2.97
2022-11-02T19:35:55.206Z,3.70
2022-11-02T19:38:58.996Z,2.85
2022-11-02T19:42:01.086Z,3.05
2022-11-02T19:45:03.152Z,2.58
2022-11-02T19:48:05.438Z,2.53
2022-11-02T19:54:29.725Z,2.47
2022-11-02T19:57:33.343Z,2.35
2022-11-02T20:00:35.608Z,2.35
2022-11-02T20:03:38.480Z,2.40
2022-11-02T20:06:42.476Z,2.88
2022-11-02T20:09:44.517Z,2.50
2022-11-02T20:12:46.788Z,2.65
2022-11-02T20:15:48.808Z,2.03
2022-11-02T20:18:52.203Z,2.92
2022-11-02T20:21:54.173Z,2.70
2022-11-02T20:24:56.128Z,2.95
2022-11-02T20:27:58.348Z,2.90
2022-11-02T20:31:00.643Z,2.55
2022-11-02T20:34:04.951Z,2.67
2022-11-02T20:37:06.903Z,2.63
2022-11-02T20:40:09.968Z,2.78
2022-11-02T20:43:12.520Z,2.75
2022-11-02T20:46:38.350Z,3.45
2022-11-02T20:49:50.590Z,7.20
2022-11-02T20:52:53.863Z,3.50
2022-11-02T20:55:56.456Z,2.28
2022-11-02T20:58:58.664Z,2.17
2022-11-02T21:02:00.812Z,2.25
2022-11-02T21:05:03.145Z,1.98
2022-11-02T21:08:05.268Z,2.33
2022-11-02T21:11:07.497Z,2.90
2022-11-02T21:14:09.650Z,2.20
2022-11-02T21:17:13.729Z,2.80
2022-11-02T21:23:38.376Z,2.42
2022-11-02T21:26:41.326Z,2.70
2022-11-02T21:29:43.260Z,2.60
2022-11-02T21:32:45.312Z,2.25
2022-11-02T21:35:48.289Z,1.83
2022-11-02T21:38:50.268Z,1.95
2022-11-02T21:41:52.198Z,2.90
2022-11-02T21:44:54.199Z,1.83
2022-11-02T21:47:56.127Z,2.35
2022-11-02T21:51:05.998Z,2.63
2022-11-02T21:54:08.085Z,2.20
2022-11-02T21:57:09.973Z,2.88
2022-11-02T22:00:12.508Z,2.10
2022-11-02T22:03:17.483Z,2.42
2022-11-02T22:06:21.815Z,2.60
2022-11-02T22:09:24.262Z,2.20
2022-11-02T22:12:26.456Z,2.25
2022-11-02T22:15:35.856Z,2.00
2022-11-02T22:18:42.486Z,2.60
2022-11-02T22:21:45.301Z,1.98
2022-11-02T22:24:47.274Z,2.58
2022-11-02T22:27:49.312Z,2.83
2022-11-02T22:30:51.224Z,2.58
2022-11-02T22:33:57.883Z,2.50
2022-11-02T22:37:00.094Z,2.38
2022-11-02T22:40:02.193Z,2.30
2022-11-02T22:43:04.465Z,2.40
2022-11-02T22:46:07.939Z,2.90
2022-11-02T22:49:11.913Z,2.47
2022-11-02T22:52:13.858Z,2.63
2022-11-02T22:55:16.226Z,3.60
2022-11-02T22:58:18.267Z,2.92
2022-11-02T23:01:22.518Z,3.13
2022-11-02T23:04:24.612Z,4.15
2022-11-02T23:07:26.630Z,2.58
2022-11-02T23:10:28.698Z,2.30
2022-11-02T23:13:30.933Z,2.92
2022-11-02T23:16:44.271Z,2.75
2022-11-02T23:19:46.234Z,2.90
2022-11-02T23:22:48.860Z,2.78
2022-11-02T23:29:00.102Z,3.10
2022-11-02T23:32:02.714Z,2.67
2022-11-02T23:35:05.584Z,3.30
2022-11-02T23:38:07.473Z,2.80
2022-11-02T23:41:09.647Z,2.75
2022-11-02T23:44:12.156Z,2.80
2022-11-02T23:47:14.823Z,2.63
2022-11-02T23:50:18.161Z,1.92
2022-11-02T23:53:22.747Z,2.90
2022-11-02T23:56:24.768Z,2.33
2022-11-02T23:59:26.775Z,2.75
